Du har inga inställningar för hoppväder.nu

Hoppväder.nu

Senast uppdaterat 02:29

UTC-tid

2022-05-24 kl. 00:29


Sol och måne

Solen går upp 3:54 och går ner 22:55 (beräknade cirkatider)
Nästa fullmåne blir om 21 dagar (2022-06-14)

METAR

ESSD (Borlänge)
(9 minuter sedan)
ESSD 240020Z AUTO 15003KT 9999 FEW062/// 09/03 Q1009=



ESOE (Örebro)
(9 minuter sedan)
ESOE 240020Z AUTO 03004KT 9999 NCD 07/03 Q1008=



ESOW (Västerås)
(9 minuter sedan)
ESOW 240020Z AUTO VRB01KT 9999 NCD 07/01 Q1010=



ESOK (Karlstad)
(9 minuter sedan)
ESOK 240020Z AUTO 12005KT 9999 NCD 12/06 Q1007=






TAF

ESSD (Borlänge)
ESSD



ESOE (Örebro)
(239 minuter sedan)
ESOE 232030Z 2321/2401 13005KT CAVOK=



ESOW (Västerås)
ESOW



ESOK (Karlstad)
ESOK





Kodnycklar till TAF och METAR






LHP

(Borlänge är område se34c i Delområde 1)

Prognos är inte uppdaterad






Preliminär prognos